METAR Data
IDs: Format: Raw Decoded Include TAF

Data at: 0802 UTC 03 Aug 2021

KMHS 030756Z AUTO 00000KT 10SM CLR 12/01 A3017 RMK AO2 SLP199 T01220006 403390111
KMHS 030656Z AUTO 00000KT 10SM CLR 14/02 A3018 RMK AO2 SLP201 T01390017
KMHS 030556Z AUTO 00000KT 10SM CLR 17/02 A3017 RMK AO2 SLP198 T01670022 10311 20161 50003
KMHS 030456Z AUTO 00000KT 10SM CLR 18/03 A3018 RMK AO2 SLP201 T01830033
KMHS 030356Z AUTO 00000KT 10SM CLR 22/03 A3017 RMK AO2 SLP200 T02220033
KMHS 030256Z AUTO 00000KT 10SM CLR 24/04 A3016 RMK AO2 SLP201 T02390039 53001
KMHS 030156Z AUTO 00000KT 10SM CLR 26/02 A3016 RMK AO2 SLP204 T02610022
KMHS 030056Z AUTO 00000KT 10SM CLR 29/02 A3016 RMK AO2 SLP202 T02940022
KMHS 022356Z AUTO 00000KT 10SM CLR 31/01 A3016 RMK AO2 SLP199 T03060011 10339 20306 56004
KMHS 022256Z AUTO VRB03KT 10SM CLR 32/02 A3016 RMK AO2 SLP198 T03220022
KMHS 022156Z AUTO 00000KT 10SM CLR 32/03 A3017 RMK AO2 SLP199 T03220028
KMHS 022056Z AUTO VRB03KT 10SM CLR 33/02 A3018 RMK AO2 SLP201 T03280022 58004
KMHS 021956Z AUTO VRB03KT 10SM CLR 34/02 A3018 RMK AO2 SLP201 T03390017
KMHS 021856Z AUTO 00000KT 10SM CLR 33/04 A3019 RMK AO2 SLP203 T03280039
KMHS 021756Z AUTO 00000KT 10SM CLR 32/06 A3019 RMK AO2 SLP204 T03220061 10322 20111 58005
KMHS 021656Z AUTO 00000KT 10SM CLR 28/08 A3020 RMK AO2 SLP207 T02780083
KMHS 021556Z AUTO 00000KT 10SM CLR 23/11 A3021 RMK AO2 SLP212 T02330106
KMHS 021456Z AUTO 00000KT 10SM CLR 18/09 A3021 RMK AO2 SLP214 T01830089 51008
KMHS 021356Z AUTO 00000KT 10SM CLR 12/06 A3020 RMK AO2 SLP215 T01220061
KMHS 021256Z AUTO 00000KT 10SM CLR 12/05 A3019 RMK AO2 SLP209 T01170050
KMHS 021156Z AUTO 00000KT 10SM CLR 12/04 A3018 RMK AO2 SLP205 T01220044 10167 20117 53001
KMHS 021056Z AUTO 00000KT 10SM CLR 12/05 A3018 RMK AO2 SLP203 T01220050
KMHS 020956Z AUTO 00000KT 10SM CLR 14/04 A3018 RMK AO2 SLP200 T01390039
KMHS 020856Z AUTO 00000KT 10SM CLR 13/04 A3018 RMK AO2 SLP201 T01330044 58001
KMHS 020756Z AUTO 00000KT 10SM CLR 14/03 A3018 RMK AO2 SLP203 T01390033 403500122
KMHS 020656Z AUTO 00000KT 10SM CLR 16/03 A3019 RMK AO2 SLP204 T01610033
KMHS 020556Z AUTO 00000KT 10SM CLR 17/04 A3018 RMK AO2 SLP203 T01670039 10328 20167 51018
KMHS 020456Z AUTO 07003KT 10SM CLR 19/04 A3017 RMK AO2 SLP197 T01940044
KMHS 020356Z AUTO 07003KT 10SM CLR 22/05 A3014 RMK AO2 SLP190 T02220050
KMHS 020256Z AUTO 00000KT 10SM CLR 26/04 A3012 RMK AO2 SLP186 T02560039 53002
KMHS 020156Z AUTO 00000KT 10SM CLR 29/03 A3011 RMK AO2 SLP184 T02940028
KMHS 020056Z AUTO 00000KT 10SM CLR 32/05 A3011 RMK AO2 SLP180 T03170050
KMHS 012356Z AUTO VRB03KT 10SM CLR 32/07 A3012 RMK AO2 SLP181 T03220067 10350 20294 56010
KMHS 012256Z AUTO 00000KT 10SM CLR 33/07 A3013 RMK AO2 SLP184 T03330072
KMHS 012156Z AUTO 00000KT 10SM CLR 33/06 A3014 RMK AO2 SLP187 T03330056
KMHS 012056Z AUTO 10SM FEW120 34/07 A3015 RMK AO2 SLP190 T03390067 56006